Time;durP1;ratioP1;P1;durP2;ratioP2;P2;SDS_P1;SDS_P2;PMS_P1;PMS_P2;Temp;Humidity;BMP_temperature;BMP_pressure;BME280_temperature;BME280_humidity;BME280_pressure;Samples;Min_cycle;Max_cycle;Signal;HPM_P1;HPM_P2
2022/02/06 00:02:01;;;;;;;8.68;1.52;;;7.50;99.90;;;;;;5023615;28;20077;-64
2022/02/06 00:04:27;;;;;;;5.57;1.02;;;7.50;99.90;;;;;;5020232;28;20066;-64
2022/02/06 00:06:53;;;;;;;10.38;1.55;;;7.50;99.90;;;;;;5021682;28;20130;-63
2022/02/06 00:09:19;;;;;;;8.23;2.03;;;7.50;99.90;;;;;;5025286;28;20084;-63
2022/02/06 00:11:45;;;;;;;10.18;2.75;;;7.50;99.90;;;;;;5025101;28;20476;-64
2022/02/06 00:14:11;;;;;;;17.50;2.72;;;7.60;99.90;;;;;;5039690;28;20071;-64
2022/02/06 00:16:37;;;;;;;10.93;1.77;;;7.60;99.90;;;;;;5025305;28;20060;-64
2022/02/06 00:19:03;;;;;;;6.00;1.65;;;7.60;99.90;;;;;;5040612;28;20475;-64
2022/02/06 00:21:31;;;;;;;15.18;2.70;;;7.60;99.90;;;;;;5039669;28;20504;-64
2022/02/06 00:23:59;;;;;;;10.43;2.47;;;7.70;99.90;;;;;;5016435;28;20037;-64
2022/02/06 00:39:40;;;;;;;14.18;3.03;;;7.90;99.90;;;;;;5028619;28;20054;-64
2022/02/06 00:42:06;;;;;;;17.48;3.33;;;7.90;99.90;;;;;;5028537;28;20480;-64
2022/02/06 00:44:32;;;;;;;10.98;2.40;;;7.90;99.90;;;;;;5040565;28;20096;-64
2022/02/06 00:47:02;;;;;;;13.68;2.55;;;7.90;99.90;;;;;;5028431;28;20065;-64
2022/02/06 00:49:29;;;;;;;7.03;1.05;;;7.90;99.90;;;;;;5028381;28;20399;-64
2022/02/06 00:52:03;;;;;;;5.22;1.10;;;7.90;99.90;;;;;;5028569;28;20045;-63
2022/02/06 00:54:29;;;;;;;15.55;2.58;;;7.90;99.90;;;;;;5024874;28;20045;-64
2022/02/06 00:56:55;;;;;;;9.30;1.77;;;7.90;99.90;;;;;;5028821;28;20037;-64
2022/02/06 00:59:21;;;;;;;6.90;2.17;;;7.90;99.90;;;;;;5028132;28;20404;-63
2022/02/06 01:01:47;;;;;;;8.10;2.20;;;7.90;99.90;;;;;;5026567;28;20484;-64
2022/02/06 01:04:15;;;;;;;7.03;2.25;;;7.90;99.90;;;;;;5028140;28;20033;-64
2022/02/06 01:06:41;;;;;;;15.23;3.20;;;7.90;99.90;;;;;;5026777;28;20057;-64
2022/02/06 01:09:08;;;;;;;23.30;3.60;;;7.90;99.90;;;;;;5028154;28;20037;-64
2022/02/06 01:11:36;;;;;;;16.95;2.65;;;7.90;99.90;;;;;;5028238;28;20045;-64
2022/02/06 01:16:58;;;;;;;10.70;2.05;;;7.90;99.90;;;;;;5022649;28;20120;-64
2022/02/06 01:19:29;;;;;;;13.27;2.95;;;7.90;99.90;;;;;;5028326;28;20050;-63
2022/02/06 01:22:03;;;;;;;23.23;4.00;;;7.90;99.90;;;;;;5028131;28;20208;-64
2022/02/06 01:27:08;;;;;;;5.15;2.17;;;7.90;99.90;;;;;;5026890;28;20049;-64
2022/02/06 01:32:22;;;;;;;14.63;2.53;;;8.00;99.90;;;;;;5028090;28;20081;-64
2022/02/06 01:35:01;;;;;;;3.53;1.33;;;8.00;99.90;;;;;;5012955;28;20046;-64
2022/02/06 01:37:39;;;;;;;6.93;1.85;;;8.00;99.90;;;;;;5026618;28;20050;-64
2022/02/06 01:42:37;;;;;;;16.10;2.47;;;8.00;99.90;;;;;;5042191;28;20049;-64
2022/02/06 02:04:35;;;;;;;14.82;2.72;;;8.10;99.90;;;;;;5027114;28;20111;-64
2022/02/06 02:12:19;;;;;;;9.00;2.30;;;8.10;99.90;;;;;;5027575;28;20053;-64
2022/02/06 02:15:14;;;;;;;20.67;3.00;;;8.10;99.90;;;;;;5026921;28;20106;-64
2022/02/06 02:21:00;;;;;;;16.35;2.78;;;8.10;99.90;;;;;;5006896;28;20060;-64
2022/02/06 02:45:21;;;;;;;9.10;2.22;;;8.30;99.90;;;;;;5026570;28;20077;-64
2022/02/06 02:47:49;;;;;;;17.10;3.00;;;8.30;99.90;;;;;;5022910;28;20052;-63
2022/02/06 02:50:20;;;;;;;10.38;2.25;;;8.30;99.90;;;;;;5025624;28;20073;-64
2022/02/06 02:55:21;;;;;;;11.95;2.55;;;8.30;99.90;;;;;;5024273;28;20372;-64
2022/02/06 02:58:15;;;;;;;11.43;3.20;;;8.30;99.90;;;;;;5023536;28;20405;-64
2022/02/06 03:03:34;;;;;;;6.78;1.80;;;8.30;99.90;;;;;;5026351;28;20707;-64
2022/02/06 03:05:53;;;;;;;7.70;1.70;;;8.30;99.90;;;;;;5021584;28;20058;-64
2022/02/06 03:08:20;;;;;;;10.32;2.45;;;8.30;99.90;;;;;;5023580;28;20597;-65
2022/02/06 03:10:47;;;;;;;14.52;2.22;;;8.30;99.90;;;;;;5025719;28;20037;-64
2022/02/06 03:13:16;;;;;;;18.58;3.25;;;8.30;99.90;;;;;;5024458;28;20060;-64
2022/02/06 03:18:17;;;;;;;18.20;2.35;;;8.30;99.90;;;;;;5025739;28;20048;-64
2022/02/06 03:20:43;;;;;;;17.98;3.03;;;8.30;99.90;;;;;;5039961;28;20491;-64
2022/02/06 03:23:10;;;;;;;10.05;3.22;;;8.20;99.90;;;;;;5025584;28;20200;-64
2022/02/06 03:25:45;;;;;;;5.88;1.65;;;8.20;99.90;;;;;;5025680;28;20068;-64
2022/02/06 03:28:11;;;;;;;16.65;2.67;;;8.20;99.90;;;;;;5025895;28;20050;-64
2022/02/06 03:30:36;;;;;;;8.23;1.58;;;8.20;99.90;;;;;;5025340;28;20041;-64
2022/02/06 03:33:02;;;;;;;6.30;1.92;;;8.20;99.90;;;;;;5025510;28;20081;-64
2022/02/06 03:35:28;;;;;;;6.45;1.73;;;8.20;99.90;;;;;;5025422;28;20041;-64
2022/02/06 03:37:54;;;;;;;9.98;1.73;;;8.10;99.90;;;;;;5025529;28;20199;-64
2022/02/06 03:40:23;;;;;;;14.77;2.22;;;8.20;99.90;;;;;;5019331;28;20041;-64
2022/02/06 03:43:11;;;;;;;4.63;1.25;;;8.20;99.90;;;;;;5019628;28;20572;-64
2022/02/06 03:45:42;;;;;;;9.50;1.23;;;8.20;99.90;;;;;;5025301;28;20552;-64
2022/02/06 03:48:26;;;;;;;7.53;1.65;;;8.20;99.90;;;;;;5025158;28;20045;-64
2022/02/06 03:50:54;;;;;;;3.38;1.35;;;8.20;99.90;;;;;;5039107;28;20053;-64
2022/02/06 03:53:24;;;;;;;8.45;2.22;;;8.20;99.90;;;;;;5024806;28;20083;-64
2022/02/06 03:55:51;;;;;;;8.98;2.10;;;8.20;99.90;;;;;;5024912;28;20124;-64
2022/02/06 03:58:17;;;;;;;11.02;2.15;;;8.20;99.90;;;;;;5024936;28;20088;-64
2022/02/06 04:00:43;;;;;;;5.03;1.60;;;8.20;99.90;;;;;;5024128;28;20072;-64
2022/02/06 04:03:12;;;;;;;8.68;1.55;;;8.20;99.90;;;;;;5025766;28;20045;-64
2022/02/06 04:05:38;;;;;;;4.18;1.50;;;8.20;99.90;;;;;;5023250;28;20057;-64
2022/02/06 04:08:07;;;;;;;7.30;1.10;;;8.20;99.90;;;;;;5025294;28;20037;-64
2022/02/06 04:10:43;;;;;;;2.35;1.33;;;8.10;99.90;;;;;;5024808;28;20103;-64
2022/02/06 04:13:15;;;;;;;7.22;1.70;;;8.10;99.90;;;;;;5025192;28;20084;-64
2022/02/06 04:15:48;;;;;;;0.88;0.50;;;8.10;99.90;;;;;;5039729;28;20063;-64
2022/02/06 04:18:17;;;;;;;3.35;1.00;;;8.10;99.90;;;;;;5040293;28;20046;-64
2022/02/06 04:20:43;;;;;;;4.85;1.30;;;8.10;99.90;;;;;;5025214;28;20537;-64
2022/02/06 04:23:09;;;;;;;9.88;1.33;;;8.20;99.90;;;;;;5025198;28;20037;-64
2022/02/06 04:25:35;;;;;;;19.23;2.47;;;8.20;99.90;;;;;;5025615;28;20095;-64
2022/02/06 04:28:02;;;;;;;4.95;1.30;;;8.20;99.90;;;;;;5022513;28;20087;-64
2022/02/06 04:30:28;;;;;;;7.30;1.65;;;8.20;99.90;;;;;;5025553;28;20140;-64
2022/02/06 04:32:54;;;;;;;10.30;1.42;;;8.20;99.90;;;;;;5024024;28;20113;-64
2022/02/06 04:35:30;;;;;;;3.03;0.98;;;8.20;99.90;;;;;;5025371;28;20119;-64
2022/02/06 04:38:36;;;;;;;5.85;2.10;;;8.20;99.90;;;;;;5023210;28;20168;-64
2022/02/06 04:41:12;;;;;;;3.97;1.30;;;8.20;99.90;;;;;;5024045;28;20422;-64
2022/02/06 05:11:23;;;;;;;7.40;1.52;;;8.30;99.90;;;;;;5023661;28;20128;-64
2022/02/06 05:14:15;;;;;;;10.85;2.53;;;8.20;99.90;;;;;;5028339;28;20057;-64
2022/02/06 05:16:50;;;;;;;10.85;2.13;;;8.20;99.90;;;;;;5028610;28;20104;-64
2022/02/06 05:20:29;;;;;;;10.70;1.85;;;8.20;99.90;;;;;;5026539;28;20053;-64
2022/02/06 05:27:09;;;;;;;23.70;3.53;;;8.10;99.90;;;;;;5027955;28;20045;-64
2022/02/06 05:29:57;;;;;;;22.02;2.85;;;8.20;99.90;;;;;;5041940;28;20041;-64
2022/02/06 05:32:33;;;;;;;9.60;1.67;;;8.20;99.90;;;;;;5020510;28;20068;-64
2022/02/06 05:34:59;;;;;;;9.85;1.65;;;8.20;99.90;;;;;;5027630;28;20048;-64
2022/02/06 05:37:26;;;;;;;8.35;1.67;;;8.20;99.90;;;;;;5027652;28;20044;-64
2022/02/06 05:39:56;;;;;;;9.02;1.80;;;8.20;99.90;;;;;;5026805;28;20364;-64
2022/02/06 05:42:22;;;;;;;4.37;1.10;;;8.20;99.90;;;;;;5018842;28;20045;-64
2022/02/06 05:44:54;;;;;;;3.53;0.93;;;8.20;99.90;;;;;;5026974;28;20535;-64
2022/02/06 05:47:20;;;;;;;20.25;2.40;;;8.20;99.90;;;;;;5028441;28;20045;-64
2022/02/06 05:49:46;;;;;;;8.85;2.13;;;8.20;99.90;;;;;;5026633;28;20049;-65
2022/02/06 05:52:12;;;;;;;14.48;2.08;;;8.20;99.90;;;;;;5026145;28;20048;-64
2022/02/06 05:54:38;;;;;;;18.30;3.65;;;8.20;99.90;;;;;;5026834;28;20092;-64
2022/02/06 05:57:05;;;;;;;18.05;2.50;;;8.20;99.90;;;;;;5025532;28;20033;-64
2022/02/06 05:59:31;;;;;;;16.17;2.13;;;8.20;99.90;;;;;;5027701;28;20462;-64
2022/02/06 06:01:57;;;;;;;9.77;2.50;;;8.20;99.90;;;;;;5025128;28;20523;-64
2022/02/06 06:04:23;;;;;;;13.40;2.50;;;8.20;99.90;;;;;;5027891;28;20484;-64
2022/02/06 06:06:49;;;;;;;15.75;1.52;;;8.20;99.90;;;;;;5025128;28;20054;-64
2022/02/06 06:09:15;;;;;;;16.88;2.17;;;8.30;99.90;;;;;;5028062;28;20056;-64
2022/02/06 06:11:40;;;;;;;3.22;1.58;;;8.30;99.90;;;;;;5040621;28;20128;-64
2022/02/06 06:14:06;;;;;;;20.60;4.28;;;8.30;99.90;;;;;;5026611;28;20132;-64
2022/02/06 06:16:35;;;;;;;30.90;4.85;;;8.30;99.90;;;;;;5027212;28;20034;-64
2022/02/06 06:19:02;;;;;;;22.58;3.85;;;8.20;99.90;;;;;;5026666;28;20096;-64
2022/02/06 06:21:30;;;;;;;23.40;2.97;;;7.90;99.90;;;;;;5018955;28;20056;-64
2022/02/06 06:23:56;;;;;;;14.27;2.22;;;7.60;99.90;;;;;;5025687;28;20407;-64
2022/02/06 06:26:25;;;;;;;5.93;1.23;;;7.40;99.90;;;;;;5026007;28;20057;-64
2022/02/06 06:28:53;;;;;;;9.40;2.05;;;7.20;99.90;;;;;;5026302;28;20128;-64
2022/02/06 06:31:19;;;;;;;7.18;1.17;;;7.20;99.90;;;;;;5040092;28;20132;-64
2022/02/06 06:33:45;;;;;;;10.43;1.50;;;7.10;99.90;;;;;;5041833;28;20735;-64
2022/02/06 06:36:11;;;;;;;7.82;1.15;;;7.10;99.90;;;;;;5026072;28;20304;-64
2022/02/06 06:38:37;;;;;;;3.08;0.57;;;7.20;99.90;;;;;;5027158;28;20129;-64
2022/02/06 06:41:04;;;;;;;6.05;1.25;;;7.30;99.90;;;;;;5021189;28;20038;-64
2022/02/06 06:43:30;;;;;;;2.97;0.70;;;7.40;99.90;;;;;;5025455;28;20046;-64
2022/02/06 06:45:57;;;;;;;20.15;2.50;;;7.70;99.90;;;;;;5026081;28;20040;-64
2022/02/06 06:48:23;;;;;;;5.50;0.80;;;7.80;99.90;;;;;;5027175;28;20099;-64
2022/02/06 06:50:49;;;;;;;12.52;2.95;;;7.90;99.90;;;;;;5041361;28;20049;-63
2022/02/06 06:53:15;;;;;;;11.65;1.75;;;8.10;99.90;;;;;;5022432;28;20484;-64
2022/02/06 06:55:44;;;;;;;9.85;1.67;;;8.20;99.90;;;;;;5041650;28;20041;-64
2022/02/06 07:03:40;;;;;;;4.50;1.77;;;8.20;99.90;;;;;;5003310;28;20037;-64
2022/02/06 07:06:06;;;;;;;7.75;1.92;;;8.30;99.90;;;;;;5003526;28;20597;-64
2022/02/06 07:08:31;;;;;;;4.55;1.65;;;8.30;99.90;;;;;;5006528;28;20435;-64
2022/02/06 07:10:57;;;;;;;7.18;1.38;;;8.30;99.90;;;;;;5024537;28;20120;-64
2022/02/06 07:13:23;;;;;;;7.15;1.50;;;8.30;99.90;;;;;;5024671;28;20053;-64
2022/02/06 07:15:52;;;;;;;2.35;0.82;;;8.40;99.90;;;;;;5040615;28;20107;-64
2022/02/06 07:18:19;;;;;;;9.85;1.95;;;8.40;99.90;;;;;;5026176;28;20113;-64
2022/02/06 07:20:45;;;;;;;9.82;1.42;;;8.40;99.90;;;;;;5025447;28;20563;-64
2022/02/06 07:23:11;;;;;;;7.15;1.35;;;8.40;99.90;;;;;;5019478;28;20034;-64
2022/02/06 07:25:40;;;;;;;10.52;2.45;;;8.50;99.90;;;;;;5017060;28;20112;-64
2022/02/06 07:28:14;;;;;;;9.70;1.60;;;8.40;99.90;;;;;;5024819;28;20544;-63
2022/02/06 07:30:41;;;;;;;13.00;2.33;;;8.40;99.90;;;;;;5025976;28;20119;-64
2022/02/06 07:33:06;;;;;;;9.75;1.33;;;8.40;99.90;;;;;;5018733;28;20500;-64
2022/02/06 07:35:32;;;;;;;6.95;0.98;;;8.40;99.90;;;;;;5026250;28;20125;-64
2022/02/06 07:37:59;;;;;;;2.30;0.70;;;8.40;99.90;;;;;;5023433;28;20490;-64
2022/02/06 07:40:26;;;;;;;1.63;0.93;;;8.40;99.90;;;;;;5025898;28;20080;-64
2022/02/06 07:42:52;;;;;;;4.78;1.02;;;8.40;99.90;;;;;;5025430;28;20041;-64
2022/02/06 07:45:20;;;;;;;18.50;2.50;;;8.30;99.90;;;;;;5025241;28;20040;-64
2022/02/06 07:47:47;;;;;;;11.15;2.17;;;8.30;99.90;;;;;;5025473;28;20128;-64
2022/02/06 07:50:14;;;;;;;6.47;1.13;;;8.30;99.90;;;;;;5023124;28;20476;-64
2022/02/06 07:52:41;;;;;;;8.38;0.93;;;8.30;99.90;;;;;;5025959;28;20523;-64
2022/02/06 07:55:08;;;;;;;23.30;2.80;;;8.20;99.90;;;;;;5024408;28;20049;-64
2022/02/06 07:57:34;;;;;;;10.98;2.00;;;8.30;99.90;;;;;;5025518;28;20507;-64
2022/02/06 08:00:05;;;;;;;25.27;2.50;;;8.30;99.90;;;;;;5040198;28;20139;-63
2022/02/06 08:02:30;;;;;;;;;;;8.30;99.90;;;;;;5023313;28;20100;-64
2022/02/06 08:04:57;;;;;;;15.98;1.95;;;8.30;99.90;;;;;;5022511;28;19921;-64
2022/02/06 08:07:23;;;;;;;7.88;1.42;;;8.20;99.90;;;;;;5024128;28;20488;-64
2022/02/06 08:09:53;;;;;;;21.08;2.47;;;8.20;99.90;;;;;;5025366;28;20325;-64
2022/02/06 08:12:28;;;;;;;10.52;2.28;;;8.20;99.90;;;;;;5022184;28;20088;-64
2022/02/06 08:14:56;;;;;;;4.28;1.17;;;8.20;99.90;;;;;;5023657;28;20051;-64
2022/02/06 08:17:25;;;;;;;17.90;3.05;;;8.20;99.90;;;;;;5023590;28;20112;-64
2022/02/06 08:19:52;;;;;;;19.10;2.22;;;8.10;99.90;;;;;;5024222;28;20076;-64
2022/02/06 08:22:18;;;;;;;14.90;2.20;;;8.10;99.90;;;;;;5024122;28;20124;-64
2022/02/06 08:24:45;;;;;;;4.72;1.25;;;8.10;99.90;;;;;;5024117;28;20037;-64
2022/02/06 08:27:11;;;;;;;12.63;2.20;;;8.10;99.90;;;;;;5023426;28;20044;-64
2022/02/06 08:29:39;;;;;;;24.73;4.00;;;8.20;99.90;;;;;;5024207;28;20041;-64
2022/02/06 08:32:06;;;;;;;17.88;2.92;;;8.20;99.90;;;;;;5015413;28;20033;-64
2022/02/06 08:34:32;;;;;;;21.27;2.63;;;8.20;99.90;;;;;;5024236;28;20053;-64
2022/02/06 08:36:59;;;;;;;14.18;2.33;;;8.20;99.90;;;;;;5019201;28;20049;-64
2022/02/06 08:39:26;;;;;;;13.48;2.75;;;8.10;99.90;;;;;;5020160;28;20057;-64
2022/02/06 08:41:52;;;;;;;18.98;3.00;;;8.10;99.90;;;;;;5024187;28;20034;-64
2022/02/06 08:44:17;;;;;;;17.67;2.50;;;8.10;99.90;;;;;;5022996;28;20620;-64
2022/02/06 08:46:43;;;;;;;20.77;4.28;;;8.10;99.90;;;;;;5026075;28;20040;-64
2022/02/06 08:49:09;;;;;;;18.92;2.88;;;8.10;99.90;;;;;;5025495;28;20064;-64
2022/02/06 08:51:35;;;;;;;17.48;2.25;;;8.10;99.90;;;;;;5043070;28;20132;-64
2022/02/06 08:54:00;;;;;;;13.77;1.80;;;8.10;99.90;;;;;;5028556;28;20045;-64
2022/02/06 08:56:27;;;;;;;14.68;2.65;;;8.10;99.90;;;;;;5026982;28;20296;-64
2022/02/06 08:58:53;;;;;;;18.58;2.42;;;8.20;99.90;;;;;;5043967;28;20052;-64
2022/02/06 09:01:19;;;;;;;23.77;2.70;;;8.20;99.90;;;;;;5028086;28;20090;-64
2022/02/06 09:03:45;;;;;;;31.35;4.78;;;8.20;99.90;;;;;;5027030;28;20086;-63
2022/02/06 09:06:12;;;;;;;20.60;3.05;;;8.20;99.90;;;;;;5040025;28;20809;-64
2022/02/06 09:08:38;;;;;;;15.77;2.65;;;8.20;99.90;;;;;;5038077;28;20527;-64
2022/02/06 09:11:04;;;;;;;29.42;4.07;;;8.20;99.90;;;;;;5026394;28;20025;-64
2022/02/06 09:13:31;;;;;;;19.85;2.45;;;8.20;99.90;;;;;;5025233;28;20096;-64
2022/02/06 09:15:56;;;;;;;24.40;4.07;;;8.20;99.90;;;;;;5041608;28;20095;-64
2022/02/06 09:18:22;;;;;;;18.33;2.60;;;8.20;99.90;;;;;;5024349;28;20041;-64
2022/02/06 09:20:48;;;;;;;12.95;2.00;;;8.20;99.90;;;;;;5014933;28;20128;-64
2022/02/06 09:23:13;;;;;;;16.52;2.33;;;8.20;99.90;;;;;;5023550;28;20049;-64
2022/02/06 09:25:39;;;;;;;9.57;1.60;;;8.20;99.90;;;;;;5008939;28;20042;-64
2022/02/06 09:28:05;;;;;;;12.25;1.98;;;8.10;99.90;;;;;;5038518;28;20069;-64
2022/02/06 09:30:31;;;;;;;17.00;3.30;;;8.20;99.90;;;;;;5018630;28;20508;-65
2022/02/06 09:35:23;;;;;;;13.85;2.90;;;8.20;99.90;;;;;;5024252;28;20495;-64
2022/02/06 09:37:50;;;;;;;7.97;1.33;;;8.20;99.90;;;;;;5023507;28;20053;-64
2022/02/06 09:40:16;;;;;;;8.07;2.10;;;8.20;99.90;;;;;;5016155;28;20613;-64
2022/02/06 09:42:50;;;;;;;12.68;2.33;;;8.20;99.90;;;;;;5023482;28;20132;-64
2022/02/06 09:45:16;;;;;;;10.15;1.75;;;8.20;99.90;;;;;;5025362;28;20078;-64
2022/02/06 09:47:46;;;;;;;14.00;2.08;;;8.20;99.90;;;;;;5039947;28;20064;-65
2022/02/06 09:50:13;;;;;;;12.82;2.33;;;8.20;99.90;;;;;;5039712;28;20049;-64
2022/02/06 09:52:40;;;;;;;7.10;1.20;;;8.20;99.90;;;;;;5039057;28;20574;-64
2022/02/06 09:55:12;;;;;;;3.10;0.85;;;8.20;99.90;;;;;;5025243;28;20144;-65
2022/02/06 09:58:14;;;;;;;8.93;1.45;;;8.20;99.90;;;;;;5013787;28;20103;-65
2022/02/06 10:00:29;;;;;;;5.65;1.23;;;8.30;99.90;;;;;;5018352;28;20052;-65
2022/02/06 10:03:02;;;;;;;7.20;1.23;;;8.30;99.90;;;;;;5027365;28;20042;-64
2022/02/06 10:05:33;;;;;;;7.82;1.15;;;8.30;99.90;;;;;;5025989;28;20038;-64
2022/02/06 10:08:38;;;;;;;1.77;0.60;;;8.30;99.90;;;;;;5027097;28;20038;-64
2022/02/06 10:11:14;;;;;;;5.47;1.23;;;8.30;99.90;;;;;;5023766;28;20499;-65
2022/02/06 10:13:41;;;;;;;4.63;1.27;;;8.30;99.90;;;;;;5026700;28;20084;-65
2022/02/06 10:16:11;;;;;;;6.97;1.15;;;8.30;99.90;;;;;;5027449;28;20441;-65
2022/02/06 10:18:38;;;;;;;6.80;1.00;;;8.30;99.90;;;;;;5040718;28;20053;-65
2022/02/06 10:21:05;;;;;;;13.88;1.73;;;8.30;99.90;;;;;;5022869;28;20169;-65
2022/02/06 10:26:41;;;;;;;1.30;0.57;;;8.40;99.90;;;;;;5026468;28;20045;-65
2022/02/06 10:31:40;;;;;;;1.95;1.02;;;8.40;99.90;;;;;;5021163;28;20300;-65
2022/02/06 10:34:21;;;;;;;4.95;0.82;;;8.40;99.90;;;;;;5014662;28;20049;-65
2022/02/06 10:36:47;;;;;;;1.67;0.60;;;8.40;99.90;;;;;;5022205;28;20167;-65
2022/02/06 10:39:16;;;;;;;2.15;0.90;;;8.40;99.90;;;;;;5014431;28;20105;-65
2022/02/06 10:41:46;;;;;;;7.60;1.77;;;8.00;99.90;;;;;;5025616;28;20041;-65
2022/02/06 10:44:14;;;;;;;7.38;1.40;;;7.70;99.90;;;;;;5038493;28;20430;-65
2022/02/06 10:46:45;;;;;;;10.25;2.03;;;7.50;99.90;;;;;;5023275;28;20124;-65
2022/02/06 10:49:14;;;;;;;11.75;2.33;;;7.30;99.90;;;;;;5025941;28;20508;-65
2022/02/06 10:51:56;;;;;;;20.33;3.90;;;7.20;99.90;;;;;;5012242;28;20045;-65
2022/02/06 10:54:31;;;;;;;15.45;3.38;;;7.10;99.90;;;;;;5015498;28;20060;-65
2022/02/06 10:57:14;;;;;;;17.17;3.28;;;7.00;99.90;;;;;;5039994;28;20946;-65
2022/02/06 10:59:43;;;;;;;13.77;3.15;;;6.90;99.90;;;;;;5024196;28;20065;-65
2022/02/06 11:02:28;;;;;;;20.17;3.35;;;6.80;99.90;;;;;;5022431;28;20095;-65
2022/02/06 11:04:59;;;;;;;14.45;2.42;;;6.80;99.90;;;;;;5024366;28;20135;-65
2022/02/06 11:07:26;;;;;;;17.88;2.78;;;6.70;99.90;;;;;;5024989;28;20447;-65
2022/02/06 11:10:04;;;;;;;13.10;2.38;;;6.60;99.90;;;;;;5024707;28;20045;-65
2022/02/06 11:12:29;;;;;;;13.18;2.40;;;6.60;99.90;;;;;;5025285;28;20488;-65
2022/02/06 11:15:01;;;;;;;13.23;4.30;;;6.60;99.90;;;;;;5024905;28;20380;-65
2022/02/06 11:17:29;;;;;;;10.93;2.47;;;6.50;99.90;;;;;;5024628;28;20045;-65
2022/02/06 11:20:13;;;;;;;14.48;2.80;;;6.50;99.90;;;;;;5017532;28;20042;-65
2022/02/06 11:22:52;;;;;;;18.33;2.53;;;6.50;99.90;;;;;;5037959;28;20045;-65
2022/02/06 11:25:19;;;;;;;6.22;1.80;;;6.40;99.90;;;;;;5040735;28;20056;-65
2022/02/06 11:27:45;;;;;;;7.75;1.60;;;6.40;99.90;;;;;;5025002;28;20092;-65
2022/02/06 11:30:11;;;;;;;6.78;1.48;;;6.40;99.90;;;;;;5023371;28;20064;-65
2022/02/06 11:32:40;;;;;;;7.95;1.45;;;6.30;99.90;;;;;;5033164;28;20057;-66
2022/02/06 11:35:14;;;;;;;5.35;0.95;;;6.30;99.90;;;;;;5017480;28;20073;-65
2022/02/06 11:44:08;;;;;;;2.83;0.85;;;6.20;99.90;;;;;;5020859;28;20057;-65
2022/02/06 11:46:48;;;;;;;5.22;1.20;;;6.30;99.90;;;;;;5023436;28;20492;-65
2022/02/06 11:49:16;;;;;;;10.75;1.67;;;6.30;99.90;;;;;;5022707;28;20167;-65
2022/02/06 11:51:56;;;;;;;7.35;1.00;;;6.30;99.90;;;;;;5022159;28;20076;-65
2022/02/06 11:54:42;;;;;;;3.60;0.63;;;6.30;99.90;;;;;;5025012;28;20169;-65
2022/02/06 11:57:26;;;;;;;6.40;1.25;;;6.30;99.90;;;;;;5023116;28;20045;-65
2022/02/06 12:00:07;;;;;;;3.08;0.90;;;6.30;99.90;;;;;;5023518;28;20487;-65
2022/02/06 12:02:44;;;;;;;5.00;0.90;;;6.30;99.90;;;;;;5019309;28;20047;-65
2022/02/06 12:05:21;;;;;;;3.95;0.98;;;6.30;99.90;;;;;;5024821;28;20041;-65
2022/02/06 12:07:55;;;;;;;1.35;0.20;;;6.30;99.90;;;;;;5019796;28;20049;-65
2022/02/06 12:10:55;;;;;;;5.60;0.63;;;6.40;99.90;;;;;;5023772;28;20187;-65
2022/02/06 12:13:25;;;;;;;;;;;6.40;99.90;;;;;;5023313;28;20055;-65
2022/02/06 12:15:53;;;;;;;3.17;0.73;;;6.40;99.90;;;;;;5022687;28;20461;-65
2022/02/06 12:18:27;;;;;;;3.92;0.70;;;6.40;99.90;;;;;;5023790;28;20087;-65
2022/02/06 12:20:55;;;;;;;1.60;0.35;;;6.40;99.90;;;;;;5037524;28;20125;-64
2022/02/06 12:23:42;;;;;;;3.78;0.52;;;6.40;99.90;;;;;;5024635;28;20085;-65
2022/02/06 12:26:32;;;;;;;0.08;0.03;;;6.50;99.90;;;;;;5023531;28;20676;-64
2022/02/06 12:29:08;;;;;;;2.78;0.32;;;6.40;99.90;;;;;;5024282;28;20668;-65
2022/02/06 12:31:46;;;;;;;0.63;0.20;;;6.50;99.90;;;;;;5023036;28;20132;-65
2022/02/06 12:36:53;;;;;;;3.05;0.47;;;6.50;99.90;;;;;;5021107;28;20048;-64
2022/02/06 12:37:27;;;;;;;1.10;0.13;;;6.50;99.90;;;;;;5012701;28;20535;-64
2022/02/06 12:39:57;;;;;;;0.13;0.10;;;6.50;99.90;;;;;;5021735;28;20046;-64
2022/02/06 12:42:36;;;;;;;1.77;0.10;;;6.50;99.90;;;;;;5024696;28;20124;-65
2022/02/06 12:45:04;;;;;;;2.53;0.52;;;6.60;99.90;;;;;;5026853;28;20175;-65
2022/02/06 12:47:30;;;;;;;0.47;0.10;;;6.60;99.90;;;;;;5035721;28;20556;-64
2022/02/06 12:49:57;;;;;;;4.60;1.90;;;6.70;99.90;;;;;;5021531;28;20041;-64
2022/02/06 12:52:23;;;;;;;3.60;0.25;;;6.70;99.90;;;;;;5021685;28;20066;-65
2022/02/06 12:54:48;;;;;;;6.85;0.65;;;6.80;99.90;;;;;;5033256;28;20492;-65
2022/02/06 12:57:19;;;;;;;2.20;0.47;;;6.80;99.90;;;;;;5022405;28;20045;-65
2022/02/06 12:59:45;;;;;;;5.07;0.93;;;6.90;99.90;;;;;;5019903;28;20041;-65
2022/02/06 13:02:13;;;;;;;2.00;0.30;;;6.90;99.90;;;;;;5018688;28;20064;-65
2022/02/06 13:04:43;;;;;;;2.22;0.30;;;6.90;99.90;;;;;;5024104;28;20049;-64
2022/02/06 13:07:11;;;;;;;7.70;1.73;;;7.00;99.90;;;;;;5035873;28;20404;-64
2022/02/06 13:09:45;;;;;;;1.95;0.90;;;7.00;99.90;;;;;;5023418;28;20045;-65
2022/02/06 13:12:25;;;;;;;2.45;0.75;;;7.00;99.90;;;;;;5022801;28;20128;-64
2022/02/06 13:20:29;;;;;;;9.35;1.08;;;7.10;99.90;;;;;;5022065;28;20450;-64
2022/02/06 13:26:35;;;;;;;9.63;1.48;;;7.20;99.90;;;;;;5041098;28;20056;-66
2022/02/06 13:29:04;;;;;;;13.52;2.55;;;7.20;99.90;;;;;;5027692;28;20049;-65
2022/02/06 13:36:41;;;;;;;4.43;0.68;;;7.30;99.90;;;;;;5025109;28;20061;-65
2022/02/06 13:39:14;;;;;;;9.88;2.50;;;7.30;99.90;;;;;;5010940;28;20055;-65
2022/02/06 13:41:40;;;;;;;18.13;2.92;;;7.40;99.90;;;;;;5024594;28;20124;-65
2022/02/06 13:44:19;;;;;;;7.35;1.58;;;7.40;99.90;;;;;;5041244;28;20041;-65
2022/02/06 13:46:46;;;;;;;7.90;1.25;;;7.50;99.90;;;;;;5024454;28;20127;-65
2022/02/06 13:49:12;;;;;;;16.70;2.78;;;7.50;99.90;;;;;;5025302;28;20077;-65
2022/02/06 13:51:50;;;;;;;22.23;3.55;;;7.50;99.90;;;;;;5021871;28;20061;-65
2022/02/06 13:54:17;;;;;;;12.82;2.47;;;7.60;99.90;;;;;;5023448;28;20543;-65
2022/02/06 13:56:44;;;;;;;15.18;2.50;;;7.60;99.90;;;;;;5023976;28;20484;-65
2022/02/06 13:59:22;;;;;;;15.73;3.65;;;7.60;99.90;;;;;;5022636;28;20044;-65
2022/02/06 14:01:53;;;;;;;19.33;2.90;;;7.60;99.90;;;;;;5023418;28;20146;-65
2022/02/06 14:04:28;;;;;;;19.23;3.60;;;7.60;99.90;;;;;;5026927;28;20141;-65
2022/02/06 14:07:04;;;;;;;17.25;3.00;;;7.60;99.90;;;;;;5017507;28;20038;-64
2022/02/06 14:09:47;;;;;;;17.20;3.70;;;7.60;99.90;;;;;;5022390;28;20116;-65
2022/02/06 14:12:22;;;;;;;11.27;2.13;;;7.70;99.90;;;;;;5021847;28;20480;-64
2022/02/06 14:14:54;;;;;;;21.48;3.30;;;7.70;99.90;;;;;;5022918;28;20088;-64
2022/02/06 14:17:24;;;;;;;19.55;3.35;;;7.60;99.90;;;;;;5017453;28;20038;-64
2022/02/06 14:19:51;;;;;;;11.23;2.13;;;7.60;99.90;;;;;;5024595;28;20080;-64
2022/02/06 14:22:30;;;;;;;14.13;2.78;;;7.50;99.90;;;;;;5019201;28;20096;-65
2022/02/06 14:25:05;;;;;;;14.32;2.30;;;7.50;99.90;;;;;;5024619;28;20442;-64
2022/02/06 14:27:34;;;;;;;8.65;1.88;;;7.60;99.90;;;;;;5026301;28;20099;-64
2022/02/06 14:30:07;;;;;;;15.35;2.95;;;7.60;99.90;;;;;;5026608;28;20052;-64
2022/02/06 14:32:33;;;;;;;14.20;2.63;;;7.60;99.90;;;;;;5026610;28;20439;-65
2022/02/06 14:35:03;;;;;;;9.55;1.83;;;7.60;99.90;;;;;;5023846;28;20486;-64
2022/02/06 14:37:42;;;;;;;14.38;3.00;;;7.60;99.90;;;;;;5017112;28;20092;-64
2022/02/06 14:40:22;;;;;;;16.13;2.63;;;7.60;99.90;;;;;;5025314;28;20034;-64
2022/02/06 14:42:53;;;;;;;15.60;3.35;;;7.60;99.90;;;;;;5025517;28;20092;-64
2022/02/06 14:45:20;;;;;;;18.55;3.55;;;7.60;99.90;;;;;;5026708;28;20095;-64
2022/02/06 14:47:46;;;;;;;7.50;1.10;;;7.60;99.90;;;;;;5025649;28;20033;-64
2022/02/06 14:50:18;;;;;;;19.98;3.50;;;7.50;99.90;;;;;;5040942;28;20076;-65
2022/02/06 14:52:45;;;;;;;18.30;3.08;;;7.60;99.90;;;;;;5026744;28;20099;-64
2022/02/06 14:55:13;;;;;;;10.60;2.75;;;7.50;99.90;;;;;;5041161;28;20057;-64
2022/02/06 14:57:39;;;;;;;11.65;2.00;;;7.60;99.90;;;;;;5023510;28;20448;-65
2022/02/06 15:00:07;;;;;;;11.20;1.77;;;7.50;99.90;;;;;;5025897;28;20120;-64
2022/02/06 15:02:33;;;;;;;15.30;2.85;;;7.50;99.90;;;;;;5018275;28;20426;-64
2022/02/06 15:04:59;;;;;;;13.25;2.60;;;7.50;99.90;;;;;;5010958;28;20042;-64
2022/02/06 15:07:26;;;;;;;15.55;3.47;;;7.50;99.90;;;;;;5018685;28;20037;-64
2022/02/06 15:09:52;;;;;;;16.30;3.60;;;7.40;99.90;;;;;;5019411;28;20044;-64
2022/02/06 15:12:18;;;;;;;18.40;2.88;;;7.40;99.90;;;;;;5022092;28;20163;-63
2022/02/06 15:14:44;;;;;;;14.40;2.72;;;6.30;99.90;;;;;;5039628;28;20041;-65
2022/02/06 15:17:11;;;;;;;6.90;1.83;;;5.40;99.90;;;;;;5027254;28;20502;-65
2022/02/06 15:19:37;;;;;;;11.27;2.15;;;5.00;99.90;;;;;;5038430;28;20041;-64
2022/02/06 15:22:03;;;;;;;6.88;1.63;;;4.80;99.90;;;;;;5012699;28;20067;-64
2022/02/06 15:24:29;;;;;;;9.95;1.48;;;4.70;99.90;;;;;;5023903;28;20456;-64
2022/02/06 15:26:56;;;;;;;4.88;1.40;;;4.60;99.90;;;;;;5022234;28;20077;-64
2022/02/06 15:29:23;;;;;;;5.78;1.00;;;4.60;99.90;;;;;;5022627;28;20523;-64
2022/02/06 15:31:49;;;;;;;4.47;0.80;;;4.60;99.90;;;;;;5023159;28;20510;-64
2022/02/06 15:34:15;;;;;;;3.70;0.80;;;4.60;99.90;;;;;;5022357;28;20076;-64
2022/02/06 15:36:47;;;;;;;3.65;1.00;;;4.60;99.90;;;;;;5020700;28;20076;-64